createdAt,value
2018-06-10T00:00:15.584Z,22.60
2018-06-10T00:02:43.813Z,20.90
2018-06-10T00:05:12.025Z,21.87
2018-06-10T00:07:40.694Z,22.33
2018-06-10T00:10:09.722Z,22.07
2018-06-10T00:12:37.930Z,22.77
2018-06-10T00:15:06.283Z,21.57
2018-06-10T00:17:34.524Z,22.33
2018-06-10T00:20:02.794Z,21.73
2018-06-10T00:22:31.744Z,22.57
2018-06-10T00:24:59.965Z,22.93
2018-06-10T00:27:28.128Z,22.57
2018-06-10T00:29:56.378Z,21.40
2018-06-10T00:32:24.562Z,21.83
2018-06-10T00:34:52.789Z,22.07
2018-06-10T00:37:21.027Z,22.50
2018-06-10T00:39:49.198Z,22.00
2018-06-10T00:42:17.388Z,23.87
2018-06-10T00:44:45.553Z,23.50
2018-06-10T00:47:13.746Z,22.53
2018-06-10T00:49:41.914Z,21.90
2018-06-10T00:52:10.234Z,22.67
2018-06-10T00:54:38.449Z,21.73
2018-06-10T00:57:06.640Z,21.07
2018-06-10T00:59:34.833Z,21.37
2018-06-10T01:02:03.266Z,22.17
2018-06-10T01:04:31.455Z,22.93
2018-06-10T01:06:59.673Z,22.47
2018-06-10T01:09:27.920Z,21.67
2018-06-10T01:11:56.217Z,21.30
2018-06-10T01:14:24.420Z,21.87
2018-06-10T01:16:52.670Z,20.83
2018-06-10T01:19:20.945Z,21.13
2018-06-10T01:21:49.180Z,22.80
2018-06-10T01:24:17.411Z,22.47
2018-06-10T01:26:51.060Z,22.93
2018-06-10T01:29:19.440Z,23.00
2018-06-10T01:31:47.719Z,25.07
2018-06-10T01:34:16.016Z,26.00
2018-06-10T01:36:44.261Z,24.83
2018-06-10T01:39:12.526Z,25.13
2018-06-10T01:41:40.788Z,25.30
2018-06-10T01:44:09.013Z,26.57
2018-06-10T01:46:37.255Z,27.00
2018-06-10T01:49:05.523Z,26.13
2018-06-10T01:51:33.827Z,25.87
2018-06-10T01:54:02.098Z,25.00
2018-06-10T01:56:30.445Z,26.17
2018-06-10T01:58:58.677Z,27.73
2018-06-10T02:01:26.935Z,26.87
2018-06-10T02:03:55.189Z,26.33
2018-06-10T02:06:23.426Z,26.63
2018-06-10T02:08:51.739Z,26.27
2018-06-10T02:11:19.978Z,25.87
2018-06-10T02:13:48.225Z,25.40
2018-06-10T02:16:16.475Z,24.20
2018-06-10T02:18:44.731Z,24.53
2018-06-10T02:21:13.027Z,25.10
2018-06-10T02:23:41.270Z,25.80
2018-06-10T02:26:09.487Z,24.37
2018-06-10T02:28:37.747Z,24.77
2018-06-10T02:31:06.076Z,25.37
2018-06-10T02:33:34.386Z,25.27
2018-06-10T02:36:02.639Z,24.73
2018-06-10T02:38:30.856Z,24.97
2018-06-10T02:40:59.111Z,25.93
2018-06-10T02:43:27.339Z,25.07
2018-06-10T02:45:55.621Z,24.73
2018-06-10T02:48:23.864Z,25.93
2018-06-10T02:50:52.445Z,26.37
2018-06-10T02:53:20.685Z,26.60
2018-06-10T02:55:48.943Z,26.73
2018-06-10T02:58:17.243Z,26.80
2018-06-10T03:00:45.518Z,25.47
2018-06-10T03:03:13.823Z,25.47
2018-06-10T03:05:42.042Z,25.80
2018-06-10T03:08:10.347Z,24.80
2018-06-10T03:10:38.598Z,26.00
2018-06-10T03:13:06.878Z,27.10
2018-06-10T03:15:35.155Z,26.67
2018-06-10T03:18:03.394Z,27.70
2018-06-10T03:20:31.645Z,27.40
2018-06-10T03:22:59.906Z,26.77
2018-06-10T03:25:28.198Z,27.97
2018-06-10T03:27:56.571Z,26.90
2018-06-10T03:30:31.356Z,25.43
2018-06-10T03:32:59.616Z,26.83
2018-06-10T03:35:27.853Z,25.67
2018-06-10T03:37:56.104Z,25.50
2018-06-10T03:40:24.343Z,24.60
2018-06-10T03:42:52.639Z,27.37
2018-06-10T03:45:20.930Z,26.63
2018-06-10T03:47:49.288Z,27.23
2018-06-10T03:50:17.579Z,26.00
2018-06-10T03:52:45.884Z,26.10
2018-06-10T03:55:14.157Z,26.23
2018-06-10T03:57:42.444Z,24.63
2018-06-10T04:00:10.759Z,25.30
2018-06-10T04:02:39.028Z,26.80
2018-06-10T04:05:07.273Z,26.40
2018-06-10T04:07:35.512Z,27.87
2018-06-10T04:10:03.771Z,26.47
2018-06-10T04:12:32.061Z,25.83
2018-06-10T04:15:00.297Z,24.00
2018-06-10T04:17:28.521Z,24.17
2018-06-10T04:19:56.800Z,24.13
2018-06-10T04:22:25.073Z,23.80
2018-06-10T04:24:53.349Z,22.77
2018-06-10T04:27:21.594Z,20.77
2018-06-10T04:29:49.846Z,19.97
2018-06-10T04:32:18.079Z,20.90
2018-06-10T04:34:46.325Z,19.93
2018-06-10T04:37:14.627Z,21.60
2018-06-10T04:39:42.926Z,20.70
2018-06-10T04:42:11.183Z,20.80
2018-06-10T04:44:39.448Z,19.30
2018-06-10T04:47:07.731Z,21.40
2018-06-10T04:49:36.026Z,21.10
2018-06-10T04:52:04.286Z,20.60
2018-06-10T04:54:32.573Z,20.77
2018-06-10T04:57:00.800Z,18.43
2018-06-10T04:59:29.051Z,18.77
2018-06-10T05:01:57.311Z,18.00
2018-06-10T05:04:25.566Z,18.87
2018-06-10T05:06:53.802Z,18.40
2018-06-10T05:09:22.034Z,19.90
2018-06-10T05:11:50.267Z,19.37
2018-06-10T05:14:18.501Z,19.27
2018-06-10T05:16:46.767Z,19.30
2018-06-10T05:19:15.040Z,18.47
2018-06-10T05:21:43.263Z,18.33
2018-06-10T05:24:11.621Z,18.80
2018-06-10T05:26:39.863Z,19.97
2018-06-10T05:29:08.136Z,19.53
2018-06-10T05:31:36.416Z,19.77
2018-06-10T05:34:04.703Z,19.13
2018-06-10T05:36:32.941Z,19.17
2018-06-10T05:39:01.183Z,17.50
2018-06-10T05:41:29.409Z,18.07
2018-06-10T05:43:57.681Z,15.83
2018-06-10T05:46:25.925Z,15.60
2018-06-10T05:48:54.181Z,14.37
2018-06-10T05:51:22.490Z,13.67
2018-06-10T05:53:50.732Z,14.07
2018-06-10T05:56:18.965Z,12.77
2018-06-10T05:58:47.212Z,13.90
2018-06-10T06:01:15.440Z,14.93
2018-06-10T06:03:43.697Z,15.37
2018-06-10T06:06:11.950Z,15.53
2018-06-10T06:08:40.199Z,14.97
2018-06-10T06:11:08.487Z,14.93
2018-06-10T06:13:36.733Z,13.97
2018-06-10T06:16:05.014Z,14.53
2018-06-10T06:18:33.298Z,14.37
2018-06-10T06:21:01.563Z,14.07
2018-06-10T06:23:29.797Z,14.67
2018-06-10T06:25:58.079Z,14.50
2018-06-10T06:28:26.364Z,13.50
2018-06-10T06:30:54.617Z,12.43
2018-06-10T06:33:22.911Z,10.33
2018-06-10T06:35:51.179Z,10.37
2018-06-10T06:38:19.519Z,9.10
2018-06-10T06:40:47.824Z,9.30
2018-06-10T06:43:22.589Z,11.30
2018-06-10T06:45:50.893Z,11.63
2018-06-10T06:48:19.119Z,10.47
2018-06-10T06:50:47.346Z,10.93
2018-06-10T06:53:15.629Z,11.40
2018-06-10T06:55:43.930Z,11.00
2018-06-10T06:58:12.118Z,10.63
2018-06-10T07:00:40.323Z,10.47
2018-06-10T07:03:08.575Z,10.53
2018-06-10T07:05:36.824Z,11.90
2018-06-10T07:08:05.294Z,12.80
2018-06-10T07:10:33.486Z,13.20
2018-06-10T07:13:01.648Z,10.73
2018-06-10T07:15:29.862Z,12.37
2018-06-10T07:17:58.037Z,13.17
2018-06-10T07:20:26.317Z,12.97
2018-06-10T07:22:54.507Z,11.73
2018-06-10T07:25:22.699Z,11.63
2018-06-10T07:27:50.968Z,12.37
2018-06-10T07:30:19.254Z,11.00
2018-06-10T07:32:47.455Z,11.53
2018-06-10T07:35:15.645Z,12.60
2018-06-10T07:37:43.808Z,12.40
2018-06-10T07:40:12.004Z,13.40
2018-06-10T07:42:40.216Z,12.37
2018-06-10T07:45:08.528Z,12.83
2018-06-10T07:47:36.756Z,13.00
2018-06-10T07:50:04.936Z,12.47
2018-06-10T07:52:33.168Z,11.33
2018-06-10T07:55:01.443Z,13.07
2018-06-10T07:57:29.696Z,10.93
2018-06-10T07:59:57.923Z,12.83
2018-06-10T08:02:26.964Z,12.73
2018-06-10T08:04:55.286Z,12.90
2018-06-10T08:07:23.479Z,12.10
2018-06-10T08:09:51.750Z,11.87
2018-06-10T08:12:20.003Z,10.27
2018-06-10T08:14:48.192Z,9.97
2018-06-10T08:17:16.390Z,10.30
2018-06-10T08:19:44.570Z,10.10
2018-06-10T08:22:12.791Z,10.10
2018-06-10T08:24:40.984Z,10.53
2018-06-10T08:27:09.193Z,9.33
2018-06-10T08:29:37.368Z,10.80
2018-06-10T08:32:05.609Z,10.50
2018-06-10T08:34:33.829Z,10.50
2018-06-10T08:37:02.047Z,10.83
2018-06-10T08:39:30.259Z,9.67
2018-06-10T08:41:58.477Z,10.33
2018-06-10T08:44:26.661Z,11.03
2018-06-10T08:46:54.851Z,10.30
2018-06-10T08:49:23.053Z,10.13
2018-06-10T08:51:51.313Z,10.30
2018-06-10T08:54:19.571Z,10.20
2018-06-10T08:56:47.756Z,10.27
2018-06-10T08:59:16.000Z,10.30
2018-06-10T09:01:44.188Z,10.93
2018-06-10T09:04:12.384Z,11.40
2018-06-10T09:06:41.034Z,10.83
2018-06-10T09:09:09.333Z,10.70
2018-06-10T09:11:37.688Z,10.57
2018-06-10T09:14:06.470Z,11.57
2018-06-10T09:16:34.691Z,11.80
2018-06-10T09:19:02.902Z,11.63
2018-06-10T09:21:31.177Z,10.77
2018-06-10T09:23:59.372Z,11.47
2018-06-10T09:26:27.570Z,11.07
2018-06-10T09:28:55.764Z,11.10
2018-06-10T09:31:23.961Z,10.87
2018-06-10T09:33:52.902Z,10.77
2018-06-10T09:36:21.169Z,10.47
2018-06-10T09:38:49.394Z,10.80
2018-06-10T09:41:17.698Z,11.13
2018-06-10T09:43:45.934Z,10.33
2018-06-10T09:46:14.154Z,10.33
2018-06-10T09:48:42.367Z,10.13
2018-06-10T09:51:10.597Z,10.20
2018-06-10T09:53:38.826Z,10.80
2018-06-10T09:56:07.099Z,10.93
2018-06-10T09:58:35.325Z,10.63
2018-06-10T10:01:03.569Z,9.97
2018-06-10T10:03:31.784Z,10.13
2018-06-10T10:05:59.983Z,9.90
2018-06-10T10:08:28.183Z,10.20
2018-06-10T10:10:56.377Z,9.97
2018-06-10T10:13:24.651Z,9.70
2018-06-10T10:15:52.898Z,9.20
2018-06-10T10:18:21.116Z,9.27
2018-06-10T10:20:49.329Z,9.63
2018-06-10T10:23:17.538Z,9.53
2018-06-10T10:25:45.774Z,9.50
2018-06-10T10:28:14.006Z,8.43
2018-06-10T10:30:42.217Z,9.27
2018-06-10T10:33:10.436Z,8.97
2018-06-10T10:35:38.666Z,9.17
2018-06-10T10:38:06.874Z,8.97
2018-06-10T10:40:35.065Z,8.87
2018-06-10T10:43:03.270Z,9.17
2018-06-10T10:45:31.623Z,9.03
2018-06-10T10:47:59.832Z,9.30
2018-06-10T10:50:28.034Z,9.17
2018-06-10T10:52:56.222Z,9.33
2018-06-10T10:55:24.460Z,8.67
2018-06-10T10:57:52.815Z,8.50
2018-06-10T11:00:21.112Z,9.00
2018-06-10T11:02:49.313Z,8.70
2018-06-10T11:05:17.602Z,8.40
2018-06-10T11:07:45.877Z,8.00
2018-06-10T11:10:14.088Z,8.33
2018-06-10T11:12:42.308Z,8.20
2018-06-10T11:15:10.511Z,7.77
2018-06-10T11:17:38.689Z,7.43
2018-06-10T11:20:06.872Z,7.17
2018-06-10T11:22:35.049Z,7.80
2018-06-10T11:25:03.237Z,8.03
2018-06-10T11:27:31.414Z,8.07
2018-06-10T11:29:59.578Z,7.83
2018-06-10T11:32:27.759Z,8.40
2018-06-10T11:34:55.948Z,8.00
2018-06-10T11:37:24.151Z,8.00
2018-06-10T11:39:52.381Z,7.43
2018-06-10T11:42:20.681Z,7.65
2018-06-10T11:44:48.817Z,7.65
2018-06-10T11:47:16.993Z,8.17
2018-06-10T11:49:45.241Z,8.23
2018-06-10T11:52:13.469Z,8.20
2018-06-10T11:54:41.675Z,8.10
2018-06-10T11:57:09.849Z,8.13
2018-06-10T11:59:38.021Z,8.90
2018-06-10T12:02:06.213Z,8.70
2018-06-10T12:04:34.390Z,8.38
2018-06-10T12:07:02.563Z,8.43
2018-06-10T12:09:30.774Z,7.70
2018-06-10T12:11:58.974Z,8.63
2018-06-10T12:14:27.194Z,8.90
2018-06-10T12:16:55.377Z,8.65
2018-06-10T12:19:23.616Z,8.45
2018-06-10T12:21:51.842Z,8.43
2018-06-10T12:24:33.953Z,8.50
2018-06-10T12:27:02.579Z,7.97
2018-06-10T12:29:30.797Z,9.38
2018-06-10T12:31:59.010Z,7.70
2018-06-10T12:34:27.188Z,7.53
2018-06-10T12:36:55.344Z,7.85
2018-06-10T12:39:23.560Z,6.55
2018-06-10T12:41:51.751Z,7.40
2018-06-10T12:44:20.005Z,7.33
2018-06-10T12:46:48.197Z,7.00
2018-06-10T12:49:16.547Z,7.33
2018-06-10T12:51:44.721Z,7.37
2018-06-10T12:54:12.924Z,7.37
2018-06-10T12:56:41.160Z,8.20
2018-06-10T12:59:09.446Z,8.30
2018-06-10T13:01:37.664Z,7.42
2018-06-10T13:04:06.081Z,8.53
2018-06-10T13:06:34.309Z,9.23
2018-06-10T13:09:02.541Z,9.65
2018-06-10T13:11:30.761Z,11.95
2018-06-10T13:13:58.937Z,11.57
2018-06-10T13:16:27.124Z,9.93
2018-06-10T13:18:55.334Z,12.07
2018-06-10T13:21:23.566Z,10.50
2018-06-10T13:23:51.757Z,9.28
2018-06-10T13:26:19.948Z,9.60
2018-06-10T13:28:48.126Z,12.58
2018-06-10T13:31:16.317Z,11.22
2018-06-10T13:33:44.523Z,10.15
2018-06-10T13:36:12.732Z,9.68
2018-06-10T13:38:40.983Z,9.33
2018-06-10T13:41:09.223Z,11.48
2018-06-10T13:43:37.445Z,10.68
2018-06-10T13:46:05.688Z,9.93
2018-06-10T13:48:33.915Z,11.15
2018-06-10T13:51:02.165Z,10.13
2018-06-10T13:53:30.369Z,11.63
2018-06-10T13:55:58.648Z,8.88
2018-06-10T13:58:26.796Z,10.40
2018-06-10T14:00:54.978Z,9.18
2018-06-10T14:03:23.188Z,10.13
2018-06-10T14:05:51.397Z,10.28
2018-06-10T14:08:19.595Z,14.07
2018-06-10T14:10:47.775Z,10.45
2018-06-10T14:13:16.004Z,10.03
2018-06-10T14:15:44.624Z,10.45
2018-06-10T14:18:12.868Z,10.85
2018-06-10T14:20:41.163Z,9.73
2018-06-10T14:23:09.414Z,10.38
2018-06-10T14:25:37.694Z,10.53
2018-06-10T14:28:06.115Z,10.55
2018-06-10T14:30:34.415Z,11.50
2018-06-10T14:33:02.723Z,10.93
2018-06-10T14:35:31.032Z,9.13
2018-06-10T14:37:59.256Z,9.80
2018-06-10T14:40:27.498Z,9.65
2018-06-10T14:42:55.731Z,11.50
2018-06-10T14:45:23.967Z,10.58
2018-06-10T14:47:52.194Z,11.43
2018-06-10T14:50:20.492Z,10.45
2018-06-10T14:52:48.801Z,11.25
2018-06-10T14:55:17.080Z,11.25
2018-06-10T14:57:45.362Z,12.40
2018-06-10T15:00:13.654Z,12.18
2018-06-10T15:02:41.918Z,12.37
2018-06-10T15:05:10.178Z,12.43
2018-06-10T15:07:38.465Z,11.88
2018-06-10T15:10:06.757Z,14.90
2018-06-10T15:12:34.995Z,11.40
2018-06-10T15:15:03.275Z,13.40
2018-06-10T15:17:31.507Z,12.40
2018-06-10T15:19:59.736Z,13.50
2018-06-10T15:22:27.986Z,11.50
2018-06-10T15:24:56.258Z,14.95
2018-06-10T15:27:24.514Z,15.18
2018-06-10T15:29:52.812Z,16.48
2018-06-10T15:32:21.234Z,12.00
2018-06-10T15:34:49.542Z,11.53
2018-06-10T15:37:17.862Z,18.98
2018-06-10T15:39:46.150Z,25.12
2018-06-10T15:42:14.476Z,17.82
2018-06-10T15:44:42.746Z,18.55
2018-06-10T15:47:10.991Z,15.13
2018-06-10T15:49:39.225Z,12.80
2018-06-10T15:52:07.527Z,12.17
2018-06-10T15:54:35.756Z,22.50
2018-06-10T15:57:03.983Z,11.37
2018-06-10T15:59:32.186Z,12.37
2018-06-10T16:02:00.446Z,11.17
2018-06-10T16:04:28.722Z,22.40
2018-06-10T16:06:57.951Z,12.53
2018-06-10T16:09:26.320Z,11.23
2018-06-10T16:11:54.596Z,11.47
2018-06-10T16:14:22.889Z,13.43
2018-06-10T16:16:51.224Z,13.23
2018-06-10T16:19:19.545Z,12.77
2018-06-10T16:21:47.962Z,13.07
2018-06-10T16:24:16.364Z,27.77
2018-06-10T16:26:44.634Z,35.90
2018-06-10T16:29:12.947Z,54.60
2018-06-10T16:31:41.256Z,21.17
2018-06-10T16:34:09.597Z,16.60
2018-06-10T16:36:37.844Z,15.70
2018-06-10T16:39:07.799Z,12.50
2018-06-10T16:41:36.114Z,12.40
2018-06-10T16:44:05.154Z,12.27
2018-06-10T16:46:33.551Z,12.33
2018-06-10T16:49:02.229Z,11.90
2018-06-10T16:51:30.628Z,11.37
2018-06-10T16:53:58.924Z,11.73
2018-06-10T16:56:27.235Z,12.87
2018-06-10T16:58:55.572Z,13.67
2018-06-10T17:01:23.863Z,13.33
2018-06-10T17:03:58.801Z,12.60
2018-06-10T17:06:27.152Z,13.47
2018-06-10T17:08:55.438Z,13.83
2018-06-10T17:11:23.735Z,13.47
2018-06-10T17:13:52.013Z,13.87
2018-06-10T17:16:20.294Z,14.37
2018-06-10T17:18:48.611Z,14.10
2018-06-10T17:21:16.887Z,14.40
2018-06-10T17:23:45.179Z,13.27
2018-06-10T17:26:13.496Z,15.03
2018-06-10T17:28:41.780Z,14.83
2018-06-10T17:31:10.062Z,14.73
2018-06-10T17:33:38.395Z,14.27
2018-06-10T17:36:06.684Z,15.90
2018-06-10T17:38:34.985Z,14.60
2018-06-10T17:41:03.256Z,13.63
2018-06-10T17:43:35.056Z,11.33
2018-06-10T17:46:03.464Z,11.27
2018-06-10T17:48:31.754Z,11.43
2018-06-10T17:51:00.065Z,11.60
2018-06-10T17:53:28.473Z,10.03
2018-06-10T17:55:56.753Z,8.77
2018-06-10T17:58:25.047Z,8.67
2018-06-10T18:00:53.405Z,8.00
2018-06-10T18:03:21.728Z,7.73
2018-06-10T18:05:49.995Z,7.00
2018-06-10T18:08:18.305Z,6.97
2018-06-10T18:10:46.561Z,6.90
2018-06-10T18:13:14.846Z,6.43
2018-06-10T18:15:43.122Z,6.63
2018-06-10T18:18:11.427Z,6.07
2018-06-10T18:20:39.812Z,7.13
2018-06-10T18:23:08.084Z,7.43
2018-06-10T18:25:36.342Z,7.40
2018-06-10T18:28:04.651Z,7.57
2018-06-10T18:30:32.929Z,7.43
2018-06-10T18:33:01.215Z,7.43
2018-06-10T18:35:29.505Z,7.50
2018-06-10T18:37:57.778Z,6.40
2018-06-10T18:40:26.055Z,6.90
2018-06-10T18:42:54.322Z,7.97
2018-06-10T18:45:22.609Z,7.50
2018-06-10T18:47:50.882Z,7.33
2018-06-10T18:50:19.199Z,6.53
2018-06-10T18:52:47.574Z,7.70
2018-06-10T18:55:15.869Z,6.70
2018-06-10T18:57:44.250Z,6.63
2018-06-10T19:00:12.504Z,7.10
2018-06-10T19:02:40.775Z,6.77
2018-06-10T19:05:09.089Z,6.63
2018-06-10T19:07:37.382Z,6.40
2018-06-10T19:10:05.694Z,6.40
2018-06-10T19:12:34.013Z,5.73
2018-06-10T19:15:02.229Z,6.50
2018-06-10T19:17:30.397Z,5.80
2018-06-10T19:19:58.599Z,6.03
2018-06-10T19:22:26.753Z,5.37
2018-06-10T19:24:55.006Z,6.20
2018-06-10T19:27:23.245Z,6.07
2018-06-10T19:29:51.580Z,5.63
2018-06-10T19:32:19.858Z,5.93
2018-06-10T19:34:48.086Z,5.83
2018-06-10T19:37:16.320Z,5.40
2018-06-10T19:39:44.599Z,5.83
2018-06-10T19:42:13.496Z,6.07
2018-06-10T19:44:41.677Z,5.83
2018-06-10T19:47:09.846Z,5.77
2018-06-10T19:49:38.078Z,5.37
2018-06-10T19:52:06.343Z,5.77
2018-06-10T19:54:34.506Z,5.80
2018-06-10T19:57:02.764Z,6.60
2018-06-10T19:59:30.998Z,5.87
2018-06-10T20:01:59.178Z,5.63
2018-06-10T20:04:27.480Z,5.10
2018-06-10T20:06:55.665Z,5.73
2018-06-10T20:09:23.899Z,6.07
2018-06-10T20:11:52.071Z,5.20
2018-06-10T20:14:20.259Z,5.40
2018-06-10T20:16:48.424Z,5.77
2018-06-10T20:19:16.598Z,5.67
2018-06-10T20:21:44.792Z,5.97
2018-06-10T20:24:12.978Z,5.87
2018-06-10T20:26:41.354Z,6.10
2018-06-10T20:29:09.534Z,5.93
2018-06-10T20:31:37.721Z,6.60
2018-06-10T20:34:06.010Z,5.83
2018-06-10T20:36:34.322Z,6.53
2018-06-10T20:39:02.665Z,6.40
2018-06-10T20:41:30.834Z,6.30
2018-06-10T20:43:59.126Z,5.90
2018-06-10T20:46:27.312Z,5.93
2018-06-10T20:48:55.488Z,6.83
2018-06-10T20:51:23.703Z,6.90
2018-06-10T20:53:51.931Z,6.67
2018-06-10T20:56:20.130Z,6.47
2018-06-10T20:58:48.313Z,6.67
2018-06-10T21:01:16.507Z,7.13
2018-06-10T21:03:44.751Z,6.73
2018-06-10T21:06:12.920Z,6.00
2018-06-10T21:08:41.235Z,5.83
2018-06-10T21:11:09.920Z,6.40
2018-06-10T21:13:38.134Z,5.80
2018-06-10T21:16:06.375Z,6.27
2018-06-10T21:18:34.558Z,6.10
2018-06-10T21:21:02.743Z,5.97
2018-06-10T21:23:30.913Z,6.20
2018-06-10T21:25:59.114Z,6.53
2018-06-10T21:28:27.286Z,5.83
2018-06-10T21:30:55.475Z,6.63
2018-06-10T21:33:23.660Z,6.90
2018-06-10T21:35:51.935Z,7.00
2018-06-10T21:38:20.159Z,7.07
2018-06-10T21:40:48.354Z,7.30
2018-06-10T21:43:16.536Z,7.17
2018-06-10T21:45:44.697Z,7.63
2018-06-10T21:48:13.313Z,8.37
2018-06-10T21:50:41.525Z,7.87
2018-06-10T21:53:09.725Z,8.23
2018-06-10T21:55:37.978Z,7.70
2018-06-10T21:58:06.220Z,7.53
2018-06-10T22:00:34.677Z,7.63
2018-06-10T22:03:02.928Z,7.53
2018-06-10T22:05:31.136Z,7.77
2018-06-10T22:07:59.362Z,7.87
2018-06-10T22:10:27.578Z,8.33
2018-06-10T22:12:55.873Z,8.73
2018-06-10T22:15:24.122Z,8.10
2018-06-10T22:17:52.329Z,8.23
2018-06-10T22:20:20.637Z,7.43
2018-06-10T22:22:48.854Z,7.07
2018-06-10T22:25:17.206Z,8.43
2018-06-10T22:27:45.438Z,8.67
2018-06-10T22:30:13.795Z,8.53
2018-06-10T22:32:42.039Z,8.70
2018-06-10T22:35:10.251Z,8.13
2018-06-10T22:37:38.485Z,9.20
2018-06-10T22:40:06.763Z,8.70
2018-06-10T22:42:35.041Z,8.90
2018-06-10T22:45:03.335Z,9.03
2018-06-10T22:47:31.574Z,8.23
2018-06-10T22:49:59.840Z,8.87
2018-06-10T22:52:28.062Z,9.47
2018-06-10T22:54:56.277Z,9.90
2018-06-10T22:57:24.549Z,8.83
2018-06-10T22:59:52.801Z,9.30
2018-06-10T23:02:21.161Z,9.00
2018-06-10T23:04:49.431Z,9.30
2018-06-10T23:07:17.680Z,10.13
2018-06-10T23:09:45.937Z,9.43
2018-06-10T23:12:14.162Z,8.97
2018-06-10T23:14:42.451Z,9.67
2018-06-10T23:17:10.687Z,9.33
2018-06-10T23:19:38.963Z,9.50
2018-06-10T23:22:07.251Z,9.50
2018-06-10T23:24:35.534Z,9.27
2018-06-10T23:27:03.786Z,9.80
2018-06-10T23:29:32.019Z,10.90
2018-06-10T23:32:00.272Z,10.20
2018-06-10T23:34:28.546Z,10.83
2018-06-10T23:36:56.797Z,10.70
2018-06-10T23:39:25.029Z,10.20
2018-06-10T23:41:53.274Z,11.70
2018-06-10T23:44:21.538Z,11.10
2018-06-10T23:46:49.793Z,11.23
2018-06-10T23:49:18.023Z,10.90
2018-06-10T23:51:46.261Z,11.90
2018-06-10T23:56:49.184Z,11.70
2018-06-10T23:59:17.427Z,10.33
